createdAt,value
2023-03-25T00:00:46.230Z,16.42
2023-03-25T00:01:48.105Z,17.69
2023-03-25T00:02:50.036Z,16.69
2023-03-25T00:03:51.996Z,15.90
2023-03-25T00:04:53.844Z,16.19
2023-03-25T00:05:55.620Z,15.95
2023-03-25T00:06:57.414Z,16.05
2023-03-25T00:07:59.259Z,15.25
2023-03-25T00:09:01.066Z,15.83
2023-03-25T00:10:02.883Z,16.47
2023-03-25T00:11:04.688Z,15.34
2023-03-25T00:12:06.477Z,15.95
2023-03-25T00:13:08.356Z,15.25
2023-03-25T00:14:10.129Z,16.40
2023-03-25T00:15:11.949Z,15.24
2023-03-25T00:16:14.691Z,15.96
2023-03-25T00:17:16.455Z,16.31
2023-03-25T00:18:18.276Z,15.12
2023-03-25T00:19:20.095Z,14.97
2023-03-25T00:20:21.903Z,14.76
2023-03-25T00:21:23.722Z,15.92
2023-03-25T00:22:25.519Z,15.04
2023-03-25T00:23:27.385Z,14.97
2023-03-25T00:24:29.223Z,16.30
2023-03-25T00:25:31.038Z,15.14
2023-03-25T00:26:32.839Z,15.36
2023-03-25T00:27:34.638Z,15.03
2023-03-25T00:28:36.492Z,16.43
2023-03-25T00:29:38.301Z,15.45
2023-03-25T00:30:40.517Z,15.16
2023-03-25T00:31:42.310Z,15.08
2023-03-25T00:32:44.170Z,15.41
2023-03-25T00:33:45.962Z,15.31
2023-03-25T00:34:47.882Z,15.21
2023-03-25T00:35:49.916Z,15.13
2023-03-25T00:36:51.784Z,15.49
2023-03-25T00:37:53.571Z,15.62
2023-03-25T00:38:55.429Z,14.64
2023-03-25T00:39:57.238Z,15.90
2023-03-25T00:40:59.037Z,15.20
2023-03-25T00:42:00.853Z,15.51
2023-03-25T00:43:02.661Z,14.95
2023-03-25T00:44:04.470Z,15.59
2023-03-25T00:45:06.288Z,15.41
2023-03-25T00:46:08.474Z,16.31
2023-03-25T00:47:10.326Z,15.07
2023-03-25T00:48:12.129Z,15.81
2023-03-25T00:49:13.937Z,15.79
2023-03-25T00:50:16.750Z,17.41
2023-03-25T00:51:18.572Z,18.57
2023-03-25T00:52:20.372Z,16.97
2023-03-25T00:53:22.184Z,17.06
2023-03-25T00:54:24.036Z,14.89
2023-03-25T00:55:25.842Z,16.03
2023-03-25T00:56:27.786Z,16.02
2023-03-25T00:57:29.573Z,15.37
2023-03-25T00:58:31.377Z,15.13
2023-03-25T00:59:33.221Z,15.36
2023-03-25T01:00:35.248Z,15.07
2023-03-25T01:01:37.055Z,15.24
2023-03-25T01:02:38.948Z,14.46
2023-03-25T01:03:40.951Z,15.00
2023-03-25T01:04:43.216Z,15.13
2023-03-25T01:05:45.004Z,15.94
2023-03-25T01:06:46.908Z,14.80
2023-03-25T01:07:48.720Z,15.08
2023-03-25T01:08:50.533Z,15.89
2023-03-25T01:09:52.415Z,14.83
2023-03-25T01:10:54.531Z,14.59
2023-03-25T01:11:56.401Z,14.73
2023-03-25T01:12:58.204Z,14.78
2023-03-25T01:14:00.005Z,14.73
2023-03-25T01:15:01.861Z,15.44
2023-03-25T01:16:03.693Z,14.85
2023-03-25T01:17:05.481Z,15.04
2023-03-25T01:18:07.307Z,14.64
2023-03-25T01:19:09.103Z,14.13
2023-03-25T01:20:11.131Z,14.76
2023-03-25T01:21:12.930Z,14.84
2023-03-25T01:22:14.732Z,14.87
2023-03-25T01:23:16.532Z,14.60
2023-03-25T01:24:18.252Z,13.91
2023-03-25T01:25:20.104Z,14.42
2023-03-25T01:26:21.963Z,14.39
2023-03-25T01:27:23.719Z,14.39
2023-03-25T01:28:25.514Z,14.45
2023-03-25T01:29:27.346Z,13.95
2023-03-25T01:30:29.193Z,13.90
2023-03-25T01:31:31.006Z,14.94
2023-03-25T01:32:32.811Z,14.26
2023-03-25T01:33:34.579Z,14.35
2023-03-25T01:34:36.392Z,14.69
2023-03-25T01:35:38.282Z,14.57
2023-03-25T01:36:40.094Z,14.65
2023-03-25T01:37:41.831Z,13.85
2023-03-25T01:38:43.648Z,14.31
2023-03-25T01:39:45.435Z,15.05
2023-03-25T01:40:47.281Z,14.95
2023-03-25T01:41:50.668Z,14.19
2023-03-25T01:42:52.710Z,15.06
2023-03-25T01:43:54.507Z,14.32
2023-03-25T01:44:56.315Z,14.03
2023-03-25T01:45:58.167Z,14.37
2023-03-25T01:47:00.010Z,13.65
2023-03-25T01:48:01.795Z,14.18
2023-03-25T01:49:03.698Z,13.53
2023-03-25T01:50:05.536Z,14.43
2023-03-25T01:51:07.393Z,14.95
2023-03-25T01:52:09.203Z,14.24
2023-03-25T01:53:11.006Z,13.80
2023-03-25T01:54:12.813Z,13.85
2023-03-25T01:55:14.613Z,13.45
2023-03-25T01:56:16.784Z,14.10
2023-03-25T01:57:18.591Z,13.98
2023-03-25T01:58:20.400Z,13.63
2023-03-25T01:59:22.111Z,13.98
2023-03-25T02:00:23.907Z,13.29
2023-03-25T02:01:25.751Z,14.07
2023-03-25T02:02:27.558Z,13.94
2023-03-25T02:03:29.402Z,13.51
2023-03-25T02:04:31.082Z,13.06
2023-03-25T02:05:32.909Z,13.32
2023-03-25T02:06:34.741Z,13.24
2023-03-25T02:07:36.537Z,12.55
2023-03-25T02:08:38.344Z,13.60
2023-03-25T02:09:40.154Z,13.37
2023-03-25T02:10:41.963Z,13.24
2023-03-25T02:11:43.813Z,13.85
2023-03-25T02:12:45.530Z,13.47
2023-03-25T02:13:47.319Z,13.43
2023-03-25T02:14:49.167Z,13.73
2023-03-25T02:15:51.139Z,13.22
2023-03-25T02:16:53.103Z,12.09
2023-03-25T02:17:54.945Z,12.05
2023-03-25T02:18:56.817Z,12.51
2023-03-25T02:19:58.609Z,12.31
2023-03-25T02:21:00.415Z,12.41
2023-03-25T02:22:02.264Z,12.07
2023-03-25T02:23:04.082Z,13.00
2023-03-25T02:24:05.914Z,12.66
2023-03-25T02:25:07.725Z,11.46
2023-03-25T02:26:09.820Z,11.78
2023-03-25T02:27:11.676Z,11.29
2023-03-25T02:28:13.461Z,11.00
2023-03-25T02:29:15.260Z,11.67
2023-03-25T02:30:17.055Z,11.17
2023-03-25T02:31:18.911Z,11.83
2023-03-25T02:32:20.718Z,12.13
2023-03-25T02:33:22.532Z,11.56
2023-03-25T02:34:24.330Z,12.44
2023-03-25T02:35:26.192Z,12.27
2023-03-25T02:36:28.063Z,12.51
2023-03-25T02:37:29.899Z,11.65
2023-03-25T02:38:31.605Z,12.09
2023-03-25T02:39:33.413Z,11.87
2023-03-25T02:40:35.208Z,11.75
2023-03-25T02:41:37.027Z,12.03
2023-03-25T02:42:38.877Z,13.15
2023-03-25T02:43:40.680Z,11.95
2023-03-25T02:44:42.481Z,12.11
2023-03-25T02:45:44.307Z,12.69
2023-03-25T02:46:46.179Z,12.83
2023-03-25T02:47:48.058Z,12.21
2023-03-25T02:48:49.828Z,12.29
2023-03-25T02:49:51.632Z,12.31
2023-03-25T02:50:53.434Z,12.34
2023-03-25T02:51:55.239Z,12.27
2023-03-25T02:52:57.093Z,12.56
2023-03-25T02:53:58.897Z,12.18
2023-03-25T02:55:00.696Z,11.59
2023-03-25T02:56:02.486Z,11.57
2023-03-25T02:57:04.349Z,11.41
2023-03-25T02:58:06.466Z,12.26
2023-03-25T02:59:08.269Z,12.19
2023-03-25T03:00:10.596Z,11.40
2023-03-25T03:01:12.418Z,11.83
2023-03-25T03:02:14.247Z,11.74
2023-03-25T03:03:16.220Z,12.05
2023-03-25T03:04:18.064Z,11.99
2023-03-25T03:05:19.876Z,11.83
2023-03-25T03:06:21.785Z,11.55
2023-03-25T03:07:23.650Z,10.97
2023-03-25T03:08:25.540Z,10.55
2023-03-25T03:09:27.377Z,11.21
2023-03-25T03:10:29.164Z,12.06
2023-03-25T03:11:30.963Z,11.98
2023-03-25T03:12:32.764Z,11.29
2023-03-25T03:13:34.596Z,11.23
2023-03-25T03:14:36.398Z,10.91
2023-03-25T03:15:38.213Z,11.31
2023-03-25T03:16:40.043Z,11.33
2023-03-25T03:17:41.899Z,11.29
2023-03-25T03:18:43.787Z,10.45
2023-03-25T03:19:46.688Z,10.94
2023-03-25T03:20:48.636Z,10.84
2023-03-25T03:21:50.444Z,11.81
2023-03-25T03:22:52.249Z,11.42
2023-03-25T03:23:54.122Z,11.37
2023-03-25T03:24:55.926Z,11.50
2023-03-25T03:25:57.726Z,10.13
2023-03-25T03:26:59.550Z,9.83
2023-03-25T03:28:01.359Z,10.73
2023-03-25T03:29:03.240Z,10.79
2023-03-25T03:30:05.059Z,10.76
2023-03-25T03:31:07.024Z,10.26
2023-03-25T03:32:09.027Z,9.79
2023-03-25T03:33:10.975Z,10.39
2023-03-25T03:34:12.862Z,11.13
2023-03-25T03:35:14.664Z,10.58
2023-03-25T03:36:16.572Z,10.73
2023-03-25T03:37:18.374Z,10.10
2023-03-25T03:38:20.186Z,10.11
2023-03-25T03:39:22.010Z,9.37
2023-03-25T03:40:23.844Z,9.35
2023-03-25T03:41:25.629Z,9.59
2023-03-25T03:42:27.465Z,9.37
2023-03-25T03:43:29.273Z,9.53
2023-03-25T03:44:31.112Z,9.30
2023-03-25T03:45:32.931Z,9.95
2023-03-25T03:46:34.771Z,10.18
2023-03-25T03:47:36.588Z,9.84
2023-03-25T03:48:38.463Z,10.29
2023-03-25T03:49:40.306Z,9.81
2023-03-25T03:50:42.186Z,9.85
2023-03-25T03:51:43.977Z,10.31
2023-03-25T03:52:45.785Z,10.91
2023-03-25T03:53:47.619Z,11.19
2023-03-25T03:54:49.481Z,11.41
2023-03-25T03:55:51.342Z,12.55
2023-03-25T03:56:53.388Z,13.49
2023-03-25T03:57:55.397Z,13.55
2023-03-25T03:58:57.189Z,14.06
2023-03-25T03:59:59.025Z,14.84
2023-03-25T04:01:00.943Z,13.47
2023-03-25T04:02:02.819Z,13.01
2023-03-25T04:03:04.633Z,12.94
2023-03-25T04:04:06.595Z,12.31
2023-03-25T04:05:08.419Z,11.81
2023-03-25T04:06:10.734Z,11.16
2023-03-25T04:07:12.567Z,12.91
2023-03-25T04:08:14.383Z,11.34
2023-03-25T04:09:16.188Z,10.82
2023-03-25T04:10:18.122Z,11.71
2023-03-25T04:11:19.936Z,10.66
2023-03-25T04:12:21.749Z,10.59
2023-03-25T04:13:23.576Z,10.29
2023-03-25T04:14:25.388Z,10.88
2023-03-25T04:15:27.200Z,10.58
2023-03-25T04:16:29.024Z,10.01
2023-03-25T04:17:30.893Z,10.36
2023-03-25T04:18:32.749Z,10.76
2023-03-25T04:19:34.557Z,11.39
2023-03-25T04:20:36.514Z,10.52
2023-03-25T04:21:38.429Z,10.75
2023-03-25T04:22:40.248Z,10.64
2023-03-25T04:23:42.055Z,10.46
2023-03-25T04:24:43.869Z,9.33
2023-03-25T04:25:45.722Z,9.59
2023-03-25T04:26:47.542Z,9.85
2023-03-25T04:27:49.452Z,10.05
2023-03-25T04:28:51.212Z,9.81
2023-03-25T04:29:53.037Z,9.76
2023-03-25T04:30:54.985Z,10.11
2023-03-25T04:31:56.836Z,9.81
2023-03-25T04:32:58.606Z,10.07
2023-03-25T04:34:00.428Z,9.83
2023-03-25T04:35:02.258Z,9.52
2023-03-25T04:36:04.093Z,9.68
2023-03-25T04:37:05.878Z,9.77
2023-03-25T04:38:07.686Z,10.07
2023-03-25T04:39:09.498Z,9.31
2023-03-25T04:40:11.315Z,9.51
2023-03-25T04:41:13.188Z,8.81
2023-03-25T04:42:14.945Z,8.87
2023-03-25T04:43:16.756Z,9.06
2023-03-25T04:44:18.573Z,8.93
2023-03-25T04:45:20.413Z,8.71
2023-03-25T04:46:22.258Z,9.43
2023-03-25T04:47:24.051Z,9.19
2023-03-25T04:48:25.851Z,9.45
2023-03-25T04:49:27.661Z,9.59
2023-03-25T04:50:29.496Z,9.64
2023-03-25T04:51:31.319Z,9.62
2023-03-25T04:52:33.132Z,9.69
2023-03-25T04:53:34.964Z,8.76
2023-03-25T04:54:36.776Z,10.39
2023-03-25T04:55:38.581Z,9.57
2023-03-25T04:56:40.421Z,8.85
2023-03-25T04:57:42.234Z,8.55
2023-03-25T04:58:44.163Z,8.86
2023-03-25T04:59:46.058Z,7.85
2023-03-25T05:00:47.993Z,8.13
2023-03-25T05:01:49.874Z,8.41
2023-03-25T05:02:51.764Z,8.40
2023-03-25T05:03:53.534Z,7.88
2023-03-25T05:04:55.346Z,8.01
2023-03-25T05:05:57.154Z,8.85
2023-03-25T05:06:58.992Z,7.99
2023-03-25T05:08:00.795Z,8.63
2023-03-25T05:09:02.680Z,8.64
2023-03-25T05:10:04.491Z,9.31
2023-03-25T05:11:06.282Z,9.65
2023-03-25T05:12:08.129Z,9.94
2023-03-25T05:13:09.934Z,11.61
2023-03-25T05:14:12.215Z,10.22
2023-03-25T05:15:14.018Z,9.95
2023-03-25T05:16:16.168Z,9.47
2023-03-25T05:17:17.981Z,8.93
2023-03-25T05:18:19.802Z,9.11
2023-03-25T05:19:21.605Z,10.31
2023-03-25T05:20:23.404Z,9.61
2023-03-25T05:21:25.210Z,9.55
2023-03-25T05:22:27.065Z,10.11
2023-03-25T05:23:28.857Z,9.41
2023-03-25T05:24:30.680Z,10.07
2023-03-25T05:25:32.458Z,9.16
2023-03-25T05:26:34.280Z,9.41
2023-03-25T05:27:36.111Z,9.82
2023-03-25T05:28:37.913Z,9.48
2023-03-25T05:29:39.708Z,8.99
2023-03-25T05:30:41.515Z,9.34
2023-03-25T05:31:43.365Z,9.25
2023-03-25T05:32:45.232Z,9.59
2023-03-25T05:33:46.963Z,8.81
2023-03-25T05:34:48.751Z,9.81
2023-03-25T05:35:50.728Z,9.71
2023-03-25T05:36:52.678Z,9.48
2023-03-25T05:37:54.504Z,9.84
2023-03-25T05:38:56.297Z,9.03
2023-03-25T05:39:58.108Z,8.21
2023-03-25T05:41:00.020Z,8.76
2023-03-25T05:42:01.819Z,8.72
2023-03-25T05:43:03.660Z,7.87
2023-03-25T05:44:05.467Z,8.37
2023-03-25T05:45:07.288Z,8.87
2023-03-25T05:46:09.438Z,8.07
2023-03-25T05:47:11.205Z,7.92
2023-03-25T05:48:13.047Z,8.21
2023-03-25T05:49:14.856Z,7.41
2023-03-25T05:50:16.646Z,7.81
2023-03-25T05:51:18.460Z,7.62
2023-03-25T05:52:20.288Z,7.47
2023-03-25T05:53:22.122Z,7.76
2023-03-25T05:54:23.932Z,7.54
2023-03-25T05:55:25.735Z,7.27
2023-03-25T05:56:27.698Z,7.70
2023-03-25T05:57:29.652Z,7.49
2023-03-25T05:58:31.495Z,7.77
2023-03-25T05:59:33.310Z,7.70
2023-03-25T06:00:37.198Z,7.89
2023-03-25T06:01:38.744Z,7.48
2023-03-25T06:02:40.613Z,6.77
2023-03-25T06:03:42.557Z,7.16
2023-03-25T06:04:44.399Z,6.92
2023-03-25T06:05:46.214Z,6.72
2023-03-25T06:06:48.033Z,6.70
2023-03-25T06:07:49.872Z,6.94
2023-03-25T06:08:51.683Z,7.02
2023-03-25T06:09:53.497Z,6.62
2023-03-25T06:10:55.290Z,6.93
2023-03-25T06:11:57.116Z,6.80
2023-03-25T06:12:58.912Z,6.97
2023-03-25T06:14:02.347Z,7.16
2023-03-25T06:15:04.360Z,7.41
2023-03-25T06:16:06.294Z,7.47
2023-03-25T06:17:08.055Z,7.32
2023-03-25T06:18:09.948Z,7.38
2023-03-25T06:19:11.799Z,7.96
2023-03-25T06:20:14.217Z,8.11
2023-03-25T06:21:16.022Z,8.47
2023-03-25T06:22:17.808Z,8.45
2023-03-25T06:23:20.304Z,8.89
2023-03-25T06:24:22.143Z,8.56
2023-03-25T06:25:23.972Z,7.77
2023-03-25T06:26:25.757Z,7.55
2023-03-25T06:27:27.554Z,8.11
2023-03-25T06:28:29.368Z,7.09
2023-03-25T06:29:31.335Z,7.27
2023-03-25T06:30:33.141Z,7.87
2023-03-25T06:31:34.981Z,8.07
2023-03-25T06:32:36.781Z,7.79
2023-03-25T06:33:43.001Z,7.68
2023-03-25T06:34:42.197Z,7.87
2023-03-25T06:35:44.045Z,7.43
2023-03-25T06:36:45.795Z,8.01
2023-03-25T06:37:47.602Z,7.45
2023-03-25T06:38:49.431Z,7.85
2023-03-25T06:39:51.255Z,8.44
2023-03-25T06:40:53.068Z,7.45
2023-03-25T06:41:54.856Z,8.09
2023-03-25T06:42:56.658Z,8.13
2023-03-25T06:43:58.469Z,7.52
2023-03-25T06:45:00.304Z,8.18
2023-03-25T06:46:02.149Z,7.99
2023-03-25T06:47:03.911Z,7.79
2023-03-25T06:48:05.713Z,7.80
2023-03-25T06:49:07.529Z,7.47
2023-03-25T06:50:10.696Z,7.53
2023-03-25T06:51:12.481Z,7.68
2023-03-25T06:52:14.320Z,7.42
2023-03-25T06:53:16.169Z,7.15
2023-03-25T06:54:17.929Z,7.03
2023-03-25T06:55:19.779Z,6.86
2023-03-25T06:56:21.589Z,7.52
2023-03-25T06:57:23.288Z,7.05
2023-03-25T06:58:25.105Z,7.73
2023-03-25T06:59:26.922Z,6.93
2023-03-25T07:00:28.756Z,7.41
2023-03-25T07:01:30.637Z,7.59
2023-03-25T07:02:32.484Z,7.03
2023-03-25T07:03:34.295Z,7.19
2023-03-25T07:04:36.076Z,7.25
2023-03-25T07:05:37.975Z,8.13
2023-03-25T07:06:39.809Z,7.29
2023-03-25T07:07:41.618Z,7.25
2023-03-25T07:08:43.446Z,7.07
2023-03-25T07:09:45.236Z,6.85
2023-03-25T07:10:47.281Z,6.66
2023-03-25T07:11:49.241Z,7.16
2023-03-25T07:12:51.037Z,6.11
2023-03-25T07:13:52.875Z,6.85
2023-03-25T07:14:54.692Z,7.28
2023-03-25T07:15:56.598Z,7.15
2023-03-25T07:16:58.443Z,8.06
2023-03-25T07:18:00.267Z,8.93
2023-03-25T07:19:02.059Z,9.03
2023-03-25T07:20:03.872Z,8.14
2023-03-25T07:21:05.617Z,8.44
2023-03-25T07:22:07.425Z,9.22
2023-03-25T07:23:09.227Z,9.68
2023-03-25T07:24:11.020Z,8.45
2023-03-25T07:25:12.836Z,8.56
2023-03-25T07:26:14.690Z,9.89
2023-03-25T07:27:16.478Z,10.13
2023-03-25T07:28:18.279Z,8.19
2023-03-25T07:29:20.101Z,9.12
2023-03-25T07:30:22.101Z,9.11
2023-03-25T07:31:23.998Z,9.39
2023-03-25T07:32:25.861Z,7.87
2023-03-25T07:33:27.671Z,7.68
2023-03-25T07:34:29.485Z,7.35
2023-03-25T07:35:31.345Z,8.21
2023-03-25T07:36:33.128Z,8.56
2023-03-25T07:37:34.929Z,10.28
2023-03-25T07:38:36.721Z,9.91
2023-03-25T07:39:38.529Z,9.85
2023-03-25T07:40:41.544Z,8.25
2023-03-25T07:41:43.347Z,8.43
2023-03-25T07:42:45.150Z,7.65
2023-03-25T07:43:46.978Z,6.97
2023-03-25T07:44:48.791Z,6.71
2023-03-25T07:45:50.614Z,7.48
2023-03-25T07:46:52.483Z,6.64
2023-03-25T07:47:54.386Z,6.09
2023-03-25T07:48:56.362Z,6.83
2023-03-25T07:49:58.202Z,7.35
2023-03-25T07:51:00.141Z,6.59
2023-03-25T07:52:02.071Z,6.85
2023-03-25T07:53:03.864Z,6.37
2023-03-25T07:54:06.370Z,6.58
2023-03-25T07:55:08.434Z,6.91
2023-03-25T07:56:11.004Z,7.10
2023-03-25T07:57:12.889Z,6.32
2023-03-25T07:58:14.738Z,6.47
2023-03-25T07:59:16.560Z,6.19
2023-03-25T08:00:18.370Z,6.62
2023-03-25T08:01:20.181Z,7.11
2023-03-25T08:02:22.048Z,6.35
2023-03-25T08:03:24.000Z,6.71
2023-03-25T08:04:25.753Z,7.15
2023-03-25T08:05:27.571Z,6.29
2023-03-25T08:06:29.567Z,5.97
2023-03-25T08:07:31.589Z,6.31
2023-03-25T08:08:33.644Z,6.13
2023-03-25T08:09:35.471Z,6.45
2023-03-25T08:10:37.291Z,6.64
2023-03-25T08:11:39.208Z,5.99
2023-03-25T08:12:41.392Z,7.04
2023-03-25T08:13:43.204Z,6.06
2023-03-25T08:14:44.998Z,6.15
2023-03-25T08:15:46.801Z,6.29
2023-03-25T08:16:48.766Z,6.63
2023-03-25T08:17:50.670Z,6.32
2023-03-25T08:18:52.451Z,5.83
2023-03-25T08:19:54.246Z,6.49
2023-03-25T08:20:56.066Z,7.21
2023-03-25T08:21:57.892Z,6.81
2023-03-25T08:22:59.744Z,6.35
2023-03-25T08:24:01.545Z,6.21
2023-03-25T08:25:03.357Z,5.95
2023-03-25T08:26:05.364Z,6.23
2023-03-25T08:27:15.362Z,5.92
2023-03-25T08:28:10.822Z,7.06
2023-03-25T08:29:13.074Z,6.77
2023-03-25T08:30:15.521Z,6.57
2023-03-25T08:31:17.385Z,6.42
2023-03-25T08:32:19.138Z,6.67
2023-03-25T08:33:20.971Z,6.29
2023-03-25T08:34:22.772Z,6.10
2023-03-25T08:35:26.421Z,6.04
2023-03-25T08:36:28.301Z,6.64
2023-03-25T08:37:30.113Z,5.87
2023-03-25T08:38:34.411Z,6.08
2023-03-25T08:39:35.524Z,5.72
2023-03-25T08:40:37.321Z,5.93
2023-03-25T08:41:39.126Z,6.87
2023-03-25T08:42:40.917Z,6.45
2023-03-25T08:43:45.005Z,6.61
2023-03-25T08:44:46.375Z,6.31
2023-03-25T08:45:48.224Z,6.39
2023-03-25T08:46:50.070Z,6.77
2023-03-25T08:47:51.911Z,6.87
2023-03-25T08:48:53.753Z,7.29
2023-03-25T08:49:55.547Z,7.78
2023-03-25T08:50:57.452Z,7.98
2023-03-25T08:51:59.247Z,7.42
2023-03-25T08:53:01.082Z,7.57
2023-03-25T08:54:02.935Z,6.99
2023-03-25T08:55:04.727Z,6.68
2023-03-25T08:56:06.636Z,6.79
2023-03-25T08:57:08.513Z,6.91
2023-03-25T08:58:10.253Z,7.35
2023-03-25T08:59:12.084Z,7.67
2023-03-25T09:00:14.200Z,7.14
2023-03-25T09:01:16.031Z,7.81
2023-03-25T09:02:17.812Z,7.45
2023-03-25T09:03:19.623Z,8.35
2023-03-25T09:04:21.466Z,8.13
2023-03-25T09:05:23.297Z,7.77
2023-03-25T09:06:25.187Z,8.50
2023-03-25T09:07:26.986Z,8.19
2023-03-25T09:08:28.788Z,7.89
2023-03-25T09:09:30.635Z,8.83
2023-03-25T09:10:32.450Z,8.00
2023-03-25T09:11:36.972Z,8.05
2023-03-25T09:12:37.892Z,8.43
2023-03-25T09:13:39.677Z,8.19
2023-03-25T09:14:41.585Z,8.21
2023-03-25T09:15:43.439Z,8.47
2023-03-25T09:16:45.299Z,9.96
2023-03-25T09:17:47.130Z,9.65
2023-03-25T09:18:48.889Z,9.85
2023-03-25T09:19:52.789Z,9.78
2023-03-25T09:20:54.385Z,9.34
2023-03-25T09:21:56.226Z,9.57
2023-03-25T09:22:57.968Z,9.34
2023-03-25T09:23:59.859Z,9.23
2023-03-25T09:25:01.709Z,8.87
2023-03-25T09:26:03.521Z,9.96
2023-03-25T09:27:05.321Z,9.61
2023-03-25T09:28:07.116Z,9.47
2023-03-25T09:29:08.943Z,9.61
2023-03-25T09:30:11.128Z,9.70
2023-03-25T09:31:12.919Z,9.92
2023-03-25T09:32:14.802Z,10.23
2023-03-25T09:33:16.665Z,10.04
2023-03-25T09:34:18.476Z,10.95
2023-03-25T09:35:20.348Z,9.86
2023-03-25T09:36:22.127Z,10.29
2023-03-25T09:37:23.948Z,9.81
2023-03-25T09:38:25.764Z,10.86
2023-03-25T09:39:27.551Z,10.11
2023-03-25T09:40:29.392Z,11.19
2023-03-25T09:41:31.188Z,10.34
2023-03-25T09:42:33.007Z,12.34
2023-03-25T09:43:34.837Z,11.74
2023-03-25T09:44:36.622Z,11.29
2023-03-25T09:45:38.460Z,11.42
2023-03-25T09:46:40.424Z,11.72
2023-03-25T09:47:42.204Z,10.73
2023-03-25T09:48:44.078Z,12.30
2023-03-25T09:49:45.892Z,13.15
2023-03-25T09:50:47.737Z,11.53
2023-03-25T09:51:49.548Z,11.94
2023-03-25T09:52:51.346Z,13.21
2023-03-25T09:53:53.159Z,12.59
2023-03-25T09:54:54.969Z,11.51
2023-03-25T09:55:56.813Z,11.64
2023-03-25T09:56:58.662Z,11.81
2023-03-25T09:58:00.461Z,12.03
2023-03-25T09:59:02.250Z,12.03
2023-03-25T10:00:04.195Z,12.88
2023-03-25T10:01:06.057Z,13.05
2023-03-25T10:02:07.862Z,12.16
2023-03-25T10:03:09.811Z,12.16
2023-03-25T10:04:11.611Z,12.40
2023-03-25T10:05:13.429Z,12.31
2023-03-25T10:06:15.367Z,11.82
2023-03-25T10:07:17.177Z,12.69
2023-03-25T10:08:18.987Z,12.09
2023-03-25T10:09:20.808Z,11.96
2023-03-25T10:10:22.736Z,12.55
2023-03-25T10:11:24.655Z,11.86
2023-03-25T10:12:26.469Z,13.75
2023-03-25T10:13:28.277Z,13.91
2023-03-25T10:14:30.074Z,13.61
2023-03-25T10:15:31.943Z,14.59
2023-03-25T10:16:33.865Z,14.99
2023-03-25T10:17:35.641Z,15.36
2023-03-25T10:18:37.425Z,15.51
2023-03-25T10:19:39.231Z,15.48
2023-03-25T10:20:41.038Z,14.18
2023-03-25T10:21:42.876Z,15.68
2023-03-25T10:22:44.704Z,15.36
2023-03-25T10:23:46.508Z,15.20
2023-03-25T10:24:48.309Z,15.13
2023-03-25T10:25:50.264Z,17.67
2023-03-25T10:26:52.576Z,17.20
2023-03-25T10:27:54.386Z,17.76
2023-03-25T10:28:56.199Z,15.53
2023-03-25T10:29:57.994Z,14.20
2023-03-25T10:30:59.796Z,14.01
2023-03-25T10:32:01.648Z,14.28
2023-03-25T10:33:03.533Z,13.82
2023-03-25T10:34:05.351Z,14.66
2023-03-25T10:35:07.057Z,14.41
2023-03-25T10:36:08.990Z,14.88
2023-03-25T10:37:10.872Z,14.45
2023-03-25T10:38:14.387Z,14.45
2023-03-25T10:39:16.283Z,14.42
2023-03-25T10:40:19.664Z,14.25
2023-03-25T10:41:21.707Z,14.80
2023-03-25T10:42:23.536Z,15.23
2023-03-25T10:43:25.345Z,15.27
2023-03-25T10:44:27.159Z,17.13
2023-03-25T10:45:28.957Z,16.27
2023-03-25T10:46:30.799Z,16.99
2023-03-25T10:47:32.643Z,16.28
2023-03-25T10:48:34.417Z,16.30
2023-03-25T10:49:36.632Z,16.97
2023-03-25T10:50:38.444Z,17.79
2023-03-25T10:51:40.260Z,16.41
2023-03-25T10:52:42.108Z,15.25
2023-03-25T10:53:43.912Z,13.94
2023-03-25T10:54:45.704Z,15.00
2023-03-25T10:55:47.511Z,14.91
2023-03-25T10:56:49.488Z,15.60
2023-03-25T10:57:51.264Z,15.41
2023-03-25T10:58:53.062Z,15.06
2023-03-25T10:59:54.860Z,13.69
2023-03-25T11:00:56.689Z,15.37
2023-03-25T11:01:58.504Z,15.48
2023-03-25T11:03:00.434Z,15.12
2023-03-25T11:04:02.235Z,16.18
2023-03-25T11:05:04.106Z,15.47
2023-03-25T11:06:06.307Z,15.68
2023-03-25T11:07:08.110Z,15.65
2023-03-25T11:08:23.741Z,17.04
2023-03-25T11:09:13.581Z,15.32
2023-03-25T11:10:15.585Z,14.47
2023-03-25T11:11:17.392Z,14.66
2023-03-25T11:12:19.187Z,14.46
2023-03-25T11:13:21.033Z,15.67
2023-03-25T11:14:22.838Z,15.41
2023-03-25T11:15:24.697Z,15.29
2023-03-25T11:16:26.576Z,16.85
2023-03-25T11:17:28.334Z,16.56
2023-03-25T11:18:30.176Z,15.77
2023-03-25T11:19:31.997Z,14.94
2023-03-25T11:20:33.887Z,14.25
2023-03-25T11:21:35.725Z,14.51
2023-03-25T11:22:37.539Z,15.64
2023-03-25T11:23:39.436Z,14.58
2023-03-25T11:24:41.206Z,14.45
2023-03-25T11:25:42.994Z,14.47
2023-03-25T11:26:44.790Z,15.32
2023-03-25T11:27:46.595Z,15.19
2023-03-25T11:28:48.447Z,14.90
2023-03-25T11:29:50.262Z,14.34
2023-03-25T11:30:52.093Z,14.57
2023-03-25T11:31:53.884Z,14.21
2023-03-25T11:32:55.752Z,14.51
2023-03-25T11:33:57.596Z,16.14
2023-03-25T11:34:59.391Z,15.59
2023-03-25T11:36:01.266Z,14.29
2023-03-25T11:37:03.104Z,14.57
2023-03-25T11:38:04.911Z,16.08
2023-03-25T11:39:06.755Z,14.42
2023-03-25T11:40:08.854Z,15.30
2023-03-25T11:41:10.660Z,14.54
2023-03-25T11:42:12.644Z,14.11
2023-03-25T11:43:14.477Z,14.30
2023-03-25T11:44:16.329Z,14.57
2023-03-25T11:45:18.141Z,14.40
2023-03-25T11:46:20.115Z,14.15
2023-03-25T11:47:21.869Z,14.33
2023-03-25T11:48:23.679Z,13.94
2023-03-25T11:49:25.422Z,15.54
2023-03-25T11:50:27.208Z,14.50
2023-03-25T11:51:29.014Z,15.46
2023-03-25T11:52:30.910Z,16.04
2023-03-25T11:53:32.757Z,14.12
2023-03-25T11:54:34.565Z,13.71
2023-03-25T11:55:36.366Z,13.99
2023-03-25T11:56:38.182Z,13.84
2023-03-25T11:57:39.970Z,14.15
2023-03-25T11:58:41.801Z,14.45
2023-03-25T11:59:43.719Z,13.50
2023-03-25T12:00:45.522Z,13.47
2023-03-25T12:01:47.329Z,14.02
2023-03-25T12:02:49.259Z,13.95
2023-03-25T12:03:51.198Z,13.66
2023-03-25T12:04:53.066Z,14.00
2023-03-25T12:05:54.907Z,14.99
2023-03-25T12:06:56.688Z,14.05
2023-03-25T12:07:58.488Z,13.74
2023-03-25T12:09:00.333Z,14.66
2023-03-25T12:10:02.134Z,14.25
2023-03-25T12:11:03.953Z,14.45
2023-03-25T12:12:05.749Z,14.25
2023-03-25T12:13:07.565Z,15.34
2023-03-25T12:14:09.347Z,13.75
2023-03-25T12:15:11.186Z,14.78
2023-03-25T12:16:13.612Z,13.82
2023-03-25T12:17:15.394Z,14.00
2023-03-25T12:18:17.258Z,14.62
2023-03-25T12:19:19.044Z,14.10
2023-03-25T12:20:20.914Z,13.56
2023-03-25T12:21:22.705Z,13.34
2023-03-25T12:22:24.515Z,13.85
2023-03-25T12:23:26.315Z,12.85
2023-03-25T12:24:28.112Z,13.92
2023-03-25T12:25:29.956Z,14.93
2023-03-25T12:26:31.734Z,14.44
2023-03-25T12:27:33.541Z,14.32
2023-03-25T12:28:35.349Z,14.31
2023-03-25T12:29:37.157Z,14.94
2023-03-25T12:30:38.994Z,14.28
2023-03-25T12:31:40.832Z,14.21
2023-03-25T12:32:42.655Z,15.06
2023-03-25T12:33:44.413Z,13.99
2023-03-25T12:34:46.221Z,14.65
2023-03-25T12:35:48.065Z,13.22
2023-03-25T12:36:49.878Z,14.43
2023-03-25T12:37:51.704Z,13.99
2023-03-25T12:38:53.513Z,13.46
2023-03-25T12:39:55.304Z,13.81
2023-03-25T12:40:57.290Z,14.16
2023-03-25T12:41:59.063Z,13.09
2023-03-25T12:43:00.861Z,13.95
2023-03-25T12:44:02.654Z,14.29
2023-03-25T12:45:04.470Z,13.23
2023-03-25T12:46:06.429Z,12.64
2023-03-25T12:47:08.255Z,13.28
2023-03-25T12:48:10.029Z,13.34
2023-03-25T12:49:11.827Z,12.75
2023-03-25T12:50:13.731Z,13.05
2023-03-25T12:51:15.632Z,13.63
2023-03-25T12:52:17.438Z,13.36
2023-03-25T12:53:19.245Z,12.59
2023-03-25T12:54:20.942Z,14.51
2023-03-25T12:55:22.733Z,13.77
2023-03-25T12:56:24.586Z,12.85
2023-03-25T12:57:26.398Z,13.38
2023-03-25T12:58:28.198Z,12.50
2023-03-25T12:59:29.996Z,12.38
2023-03-25T13:00:31.833Z,12.77
2023-03-25T13:01:33.737Z,12.84
2023-03-25T13:02:35.657Z,11.94
2023-03-25T13:03:37.485Z,12.57
2023-03-25T13:04:39.301Z,12.04
2023-03-25T13:05:41.100Z,12.42
2023-03-25T13:06:42.927Z,12.26
2023-03-25T13:07:44.730Z,12.00
2023-03-25T13:08:46.527Z,11.73
2023-03-25T13:09:48.338Z,12.59
2023-03-25T13:10:50.289Z,12.28
2023-03-25T13:11:52.280Z,12.67
2023-03-25T13:12:54.108Z,12.31
2023-03-25T13:13:55.921Z,12.63
2023-03-25T13:14:57.714Z,12.12
2023-03-25T13:15:59.508Z,12.44
2023-03-25T13:17:01.352Z,12.65
2023-03-25T13:18:03.194Z,13.37
2023-03-25T13:19:05.061Z,13.39
2023-03-25T13:20:07.163Z,13.41
2023-03-25T13:21:13.718Z,12.85
2023-03-25T13:22:12.624Z,13.39
2023-03-25T13:23:14.438Z,11.70
2023-03-25T13:24:16.254Z,13.44
2023-03-25T13:25:18.378Z,12.61
2023-03-25T13:26:20.181Z,13.63
2023-03-25T13:27:22.034Z,13.49